sensor_id;sensor_type;location;lat;lon;timestamp;pressure;altitude;pressure_sealevel;temperature;humidity
57801;BME280;43627;42.728;23.256;2023-12-28T00:01:40;96067.31;;;2.92;100.00
57801;BME280;43627;42.728;23.256;2023-12-28T00:04:07;96063.09;;;2.88;100.00
57801;BME280;43627;42.728;23.256;2023-12-28T00:06:34;96069.25;;;2.81;100.00
57801;BME280;43627;42.728;23.256;2023-12-28T00:09:00;96079.63;;;2.82;100.00
57801;BME280;43627;42.728;23.256;2023-12-28T00:11:36;96088.47;;;2.83;100.00
57801;BME280;43627;42.728;23.256;2023-12-28T00:14:03;96093.88;;;2.79;100.00
57801;BME280;43627;42.728;23.256;2023-12-28T00:16:30;96088.47;;;2.72;100.00
57801;BME280;43627;42.728;23.256;2023-12-28T00:18:59;96085.41;;;2.77;100.00
57801;BME280;43627;42.728;23.256;2023-12-28T00:21:29;96084.25;;;2.82;100.00
57801;BME280;43627;42.728;23.256;2023-12-28T00:23:55;96074.63;;;2.81;100.00
57801;BME280;43627;42.728;23.256;2023-12-28T00:26:22;96085.03;;;2.86;100.00
57801;BME280;43627;42.728;23.256;2023-12-28T00:28:48;96079.63;;;2.82;100.00
57801;BME280;43627;42.728;23.256;2023-12-28T00:31:15;96098.50;;;2.79;100.00
57801;BME280;43627;42.728;23.256;2023-12-28T00:33:42;96103.47;;;2.70;100.00
57801;BME280;43627;42.728;23.256;2023-12-28T00:36:09;96098.88;;;2.67;100.00
57801;BME280;43627;42.728;23.256;2023-12-28T00:38:36;96093.47;;;2.60;100.00
57801;BME280;43627;42.728;23.256;2023-12-28T00:41:02;96099.56;;;2.46;100.00
57801;BME280;43627;42.728;23.256;2023-12-28T00:43:29;96103.00;;;2.32;100.00
57801;BME280;43627;42.728;23.256;2023-12-28T00:45:55;96097.22;;;2.19;100.00
57801;BME280;43627;42.728;23.256;2023-12-28T00:48:22;96111.06;;;2.21;100.00
57801;BME280;43627;42.728;23.256;2023-12-28T00:50:49;96110.66;;;2.19;100.00
57801;BME280;43627;42.728;23.256;2023-12-28T00:53:15;96110.69;;;2.30;100.00
57801;BME280;43627;42.728;23.256;2023-12-28T00:55:42;96090.66;;;2.17;100.00
57801;BME280;43627;42.728;23.256;2023-12-28T00:58:09;96116.78;;;2.16;100.00
57801;BME280;43627;42.728;23.256;2023-12-28T01:00:38;96109.13;;;2.22;100.00
57801;BME280;43627;42.728;23.256;2023-12-28T01:03:05;96113.72;;;2.18;100.00
57801;BME280;43627;42.728;23.256;2023-12-28T01:05:31;96105.63;;;2.18;100.00
57801;BME280;43627;42.728;23.256;2023-12-28T01:07:58;96120.66;;;2.19;100.00
57801;BME280;43627;42.728;23.256;2023-12-28T01:10:25;96121.00;;;2.17;100.00
57801;BME280;43627;42.728;23.256;2023-12-28T01:12:51;96122.97;;;2.20;100.00
57801;BME280;43627;42.728;23.256;2023-12-28T01:15:18;96123.75;;;2.24;100.00
57801;BME280;43627;42.728;23.256;2023-12-28T01:17:49;96113.41;;;2.41;100.00
57801;BME280;43627;42.728;23.256;2023-12-28T01:20:16;96116.88;;;2.38;100.00
57801;BME280;43627;42.728;23.256;2023-12-28T01:22:42;96113.34;;;2.26;100.00
57801;BME280;43627;42.728;23.256;2023-12-28T01:25:09;96114.13;;;2.27;100.00
57801;BME280;43627;42.728;23.256;2023-12-28T01:27:35;96121.41;;;2.16;100.00
57801;BME280;43627;42.728;23.256;2023-12-28T01:30:02;96114.44;;;2.00;100.00
57801;BME280;43627;42.728;23.256;2023-12-28T01:32:29;96117.13;;;2.00;100.00
57801;BME280;43627;42.728;23.256;2023-12-28T01:34:56;96116.69;;;1.95;100.00
57801;BME280;43627;42.728;23.256;2023-12-28T01:37:22;96114.03;;;1.98;100.00
57801;BME280;43627;42.728;23.256;2023-12-28T01:39:49;96112.47;;;1.94;100.00
57801;BME280;43627;42.728;23.256;2023-12-28T01:42:16;96115.88;;;1.84;100.00
57801;BME280;43627;42.728;23.256;2023-12-28T01:44:42;96105.13;;;1.80;100.00
57801;BME280;43627;42.728;23.256;2023-12-28T01:47:09;96107.44;;;1.82;100.00
57801;BME280;43627;42.728;23.256;2023-12-28T01:49:36;96109.69;;;1.80;100.00
57801;BME280;43627;42.728;23.256;2023-12-28T01:52:03;96114.28;;;1.72;100.00
57801;BME280;43627;42.728;23.256;2023-12-28T01:54:30;96108.16;;;1.71;100.00
57801;BME280;43627;42.728;23.256;2023-12-28T01:56:57;96111.19;;;1.70;100.00
57801;BME280;43627;42.728;23.256;2023-12-28T01:59:25;96110.41;;;1.69;100.00
57801;BME280;43627;42.728;23.256;2023-12-28T02:01:52;96105.47;;;1.71;100.00
57801;BME280;43627;42.728;23.256;2023-12-28T02:04:19;96106.19;;;1.65;100.00
57801;BME280;43627;42.728;23.256;2023-12-28T02:06:54;96102.66;;;1.54;100.00
57801;BME280;43627;42.728;23.256;2023-12-28T02:09:22;96114.84;;;1.40;100.00
57801;BME280;43627;42.728;23.256;2023-12-28T02:11:49;96100.94;;;1.24;100.00
57801;BME280;43627;42.728;23.256;2023-12-28T02:14:16;96116.22;;;1.17;100.00
57801;BME280;43627;42.728;23.256;2023-12-28T02:16:44;96110.00;;;1.05;100.00
57801;BME280;43627;42.728;23.256;2023-12-28T02:21:57;96099.97;;;0.99;100.00
57801;BME280;43627;42.728;23.256;2023-12-28T02:24:25;96108.78;;;0.96;100.00
57801;BME280;43627;42.728;23.256;2023-12-28T02:26:52;96109.13;;;0.94;100.00
57801;BME280;43627;42.728;23.256;2023-12-28T02:29:18;96106.38;;;0.83;100.00
57801;BME280;43627;42.728;23.256;2023-12-28T02:31:46;96114.31;;;0.73;100.00
57801;BME280;43627;42.728;23.256;2023-12-28T02:34:16;96104.75;;;0.75;100.00
57801;BME280;43627;42.728;23.256;2023-12-28T02:36:46;96108.16;;;0.69;100.00
57801;BME280;43627;42.728;23.256;2023-12-28T02:39:14;96105.88;;;0.71;100.00
57801;BME280;43627;42.728;23.256;2023-12-28T02:41:43;96115.00;;;0.63;100.00
57801;BME280;43627;42.728;23.256;2023-12-28T02:44:10;96105.41;;;0.62;100.00
57801;BME280;43627;42.728;23.256;2023-12-28T02:46:36;96101.09;;;0.50;100.00
57801;BME280;43627;42.728;23.256;2023-12-28T02:49:03;96104.25;;;0.63;100.00
57801;BME280;43627;42.728;23.256;2023-12-28T02:51:30;96109.97;;;0.57;100.00
57801;BME280;43627;42.728;23.256;2023-12-28T02:53:57;96113.53;;;0.69;100.00
57801;BME280;43627;42.728;23.256;2023-12-28T02:56:23;96112.00;;;0.68;100.00
57801;BME280;43627;42.728;23.256;2023-12-28T02:58:50;96105.13;;;0.74;100.00
57801;BME280;43627;42.728;23.256;2023-12-28T03:01:16;96100.19;;;0.79;100.00
57801;BME280;43627;42.728;23.256;2023-12-28T03:03:43;96092.00;;;0.65;100.00
57801;BME280;43627;42.728;23.256;2023-12-28T03:06:10;96087.41;;;0.66;100.00
57801;BME280;43627;42.728;23.256;2023-12-28T03:08:36;96090.56;;;0.75;100.00
57801;BME280;43627;42.728;23.256;2023-12-28T03:11:03;96082.94;;;0.77;100.00
57801;BME280;43627;42.728;23.256;2023-12-28T03:13:29;96076.75;;;0.73;100.00
57801;BME280;43627;42.728;23.256;2023-12-28T03:15:58;96080.31;;;0.88;100.00
57801;BME280;43627;42.728;23.256;2023-12-28T03:18:24;96088.72;;;0.82;100.00
57801;BME280;43627;42.728;23.256;2023-12-28T03:20:51;96093.09;;;0.57;100.00
57801;BME280;43627;42.728;23.256;2023-12-28T03:23:18;96085.06;;;0.57;100.00
57801;BME280;43627;42.728;23.256;2023-12-28T03:25:44;96082.16;;;0.76;100.00
57801;BME280;43627;42.728;23.256;2023-12-28T03:28:11;96086.38;;;0.77;100.00
57801;BME280;43627;42.728;23.256;2023-12-28T03:30:37;96083.63;;;0.70;100.00
57801;BME280;43627;42.728;23.256;2023-12-28T03:33:04;96096.22;;;0.63;100.00
57801;BME280;43627;42.728;23.256;2023-12-28T03:35:31;96102.66;;;0.54;100.00
57801;BME280;43627;42.728;23.256;2023-12-28T03:37:57;96095.31;;;0.48;100.00
57801;BME280;43627;42.728;23.256;2023-12-28T03:40:24;96094.88;;;0.46;100.00
57801;BME280;43627;42.728;23.256;2023-12-28T03:42:51;96102.53;;;0.44;100.00
57801;BME280;43627;42.728;23.256;2023-12-28T03:45:17;96096.00;;;0.41;100.00
57801;BME280;43627;42.728;23.256;2023-12-28T03:47:44;96108.59;;;0.37;100.00
57801;BME280;43627;42.728;23.256;2023-12-28T03:50:11;96119.66;;;0.28;100.00
57801;BME280;43627;42.728;23.256;2023-12-28T03:52:38;96111.53;;;0.25;100.00
57801;BME280;43627;42.728;23.256;2023-12-28T03:55:04;96110.50;;;0.33;100.00
57801;BME280;43627;42.728;23.256;2023-12-28T03:57:31;96107.81;;;0.33;100.00
57801;BME280;43627;42.728;23.256;2023-12-28T03:59:58;96106.53;;;0.23;100.00
57801;BME280;43627;42.728;23.256;2023-12-28T04:02:25;96115.41;;;0.27;100.00
57801;BME280;43627;42.728;23.256;2023-12-28T04:04:54;96114.13;;;0.18;100.00
57801;BME280;43627;42.728;23.256;2023-12-28T04:07:22;96111.31;;;0.04;100.00
57801;BME280;43627;42.728;23.256;2023-12-28T04:09:48;96112.88;;;0.08;100.00
57801;BME280;43627;42.728;23.256;2023-12-28T04:12:15;96116.81;;;0.18;100.00
57801;BME280;43627;42.728;23.256;2023-12-28T04:14:42;96116.16;;;0.28;100.00
57801;BME280;43627;42.728;23.256;2023-12-28T04:17:08;96118.91;;;0.32;100.00
57801;BME280;43627;42.728;23.256;2023-12-28T04:19:35;96124.66;;;0.34;100.00
57801;BME280;43627;42.728;23.256;2023-12-28T04:22:02;96112.50;;;0.43;100.00
57801;BME280;43627;42.728;23.256;2023-12-28T04:24:28;96111.44;;;0.51;100.00
57801;BME280;43627;42.728;23.256;2023-12-28T04:26:55;96114.13;;;0.51;100.00
57801;BME280;43627;42.728;23.256;2023-12-28T04:29:22;96123.75;;;0.56;100.00
57801;BME280;43627;42.728;23.256;2023-12-28T04:31:48;96122.97;;;0.55;100.00
57801;BME280;43627;42.728;23.256;2023-12-28T04:34:15;96114.56;;;0.57;100.00
57801;BME280;43627;42.728;23.256;2023-12-28T04:36:42;96120.72;;;0.57;100.00
57801;BME280;43627;42.728;23.256;2023-12-28T04:39:09;96114.16;;;0.55;100.00
57801;BME280;43627;42.728;23.256;2023-12-28T04:41:36;96120.94;;;0.42;100.00
57801;BME280;43627;42.728;23.256;2023-12-28T04:44:02;96113.53;;;0.32;100.00
57801;BME280;43627;42.728;23.256;2023-12-28T04:46:29;96121.53;;;0.28;100.00
57801;BME280;43627;42.728;23.256;2023-12-28T04:48:56;96115.84;;;0.33;100.00
57801;BME280;43627;42.728;23.256;2023-12-28T04:51:23;96115.41;;;0.27;100.00
57801;BME280;43627;42.728;23.256;2023-12-28T04:53:49;96113.44;;;0.21;100.00
57801;BME280;43627;42.728;23.256;2023-12-28T04:56:19;96112.56;;;0.13;100.00
57801;BME280;43627;42.728;23.256;2023-12-28T04:58:46;96111.63;;;0.32;100.00
57801;BME280;43627;42.728;23.256;2023-12-28T05:01:13;96109.56;;;0.55;100.00
57801;BME280;43627;42.728;23.256;2023-12-28T05:03:39;96119.16;;;0.56;100.00
57801;BME280;43627;42.728;23.256;2023-12-28T05:06:06;96116.03;;;0.51;100.00
57801;BME280;43627;42.728;23.256;2023-12-28T05:08:33;96126.91;;;0.65;100.00
57801;BME280;43627;42.728;23.256;2023-12-28T05:11:00;96119.41;;;0.85;100.00
57801;BME280;43627;42.728;23.256;2023-12-28T05:13:27;96115.19;;;0.84;100.00
57801;BME280;43627;42.728;23.256;2023-12-28T05:15:54;96120.28;;;0.96;100.00
57801;BME280;43627;42.728;23.256;2023-12-28T05:18:20;96113.84;;;1.04;100.00
57801;BME280;43627;42.728;23.256;2023-12-28T05:20:47;96116.16;;;1.06;100.00
57801;BME280;43627;42.728;23.256;2023-12-28T05:23:14;96117.44;;;0.78;100.00
57801;BME280;43627;42.728;23.256;2023-12-28T05:25:40;96121.09;;;0.60;100.00
57801;BME280;43627;42.728;23.256;2023-12-28T05:28:10;96118.66;;;0.44;100.00
57801;BME280;43627;42.728;23.256;2023-12-28T05:30:36;96123.13;;;0.33;100.00
57801;BME280;43627;42.728;23.256;2023-12-28T05:33:04;96126.56;;;0.30;100.00
57801;BME280;43627;42.728;23.256;2023-12-28T05:35:31;96117.00;;;0.32;100.00
57801;BME280;43627;42.728;23.256;2023-12-28T05:37:57;96129.16;;;0.22;100.00
57801;BME280;43627;42.728;23.256;2023-12-28T05:40:24;96137.00;;;0.38;100.00
57801;BME280;43627;42.728;23.256;2023-12-28T05:42:51;96139.97;;;0.30;100.00
57801;BME280;43627;42.728;23.256;2023-12-28T05:45:18;96134.06;;;0.17;100.00
57801;BME280;43627;42.728;23.256;2023-12-28T05:47:44;96132.75;;;0.04;100.00
57801;BME280;43627;42.728;23.256;2023-12-28T05:50:11;96130.81;;;0.01;100.00
57801;BME280;43627;42.728;23.256;2023-12-28T05:52:38;96132.66;;;-0.04;100.00
57801;BME280;43627;42.728;23.256;2023-12-28T05:55:05;96135.69;;;-0.09;100.00
57801;BME280;43627;42.728;23.256;2023-12-28T05:57:32;96139.06;;;-0.12;100.00
57801;BME280;43627;42.728;23.256;2023-12-28T05:59:58;96136.63;;;0.06;100.00
57801;BME280;43627;42.728;23.256;2023-12-28T06:02:25;96120.03;;;-0.03;100.00
57801;BME280;43627;42.728;23.256;2023-12-28T06:04:52;96154.44;;;0.21;100.00
57801;BME280;43627;42.728;23.256;2023-12-28T06:07:18;96155.59;;;0.24;100.00
57801;BME280;43627;42.728;23.256;2023-12-28T06:09:45;96154.84;;;0.27;100.00
57801;BME280;43627;42.728;23.256;2023-12-28T06:12:12;96153.03;;;0.35;100.00
57801;BME280;43627;42.728;23.256;2023-12-28T06:14:39;96153.22;;;0.52;100.00
57801;BME280;43627;42.728;23.256;2023-12-28T06:17:05;96151.69;;;0.51;100.00
57801;BME280;43627;42.728;23.256;2023-12-28T06:19:32;96141.81;;;0.59;100.00
57801;BME280;43627;42.728;23.256;2023-12-28T06:21:59;96149.38;;;0.91;100.00
57801;BME280;43627;42.728;23.256;2023-12-28T06:24:26;96140.13;;;1.29;100.00
57801;BME280;43627;42.728;23.256;2023-12-28T06:26:53;96148.44;;;1.68;100.00
57801;BME280;43627;42.728;23.256;2023-12-28T06:29:20;96136.53;;;1.65;100.00
57801;BME280;43627;42.728;23.256;2023-12-28T06:31:46;96148.75;;;1.52;100.00
57801;BME280;43627;42.728;23.256;2023-12-28T06:34:15;96147.56;;;1.50;100.00
57801;BME280;43627;42.728;23.256;2023-12-28T06:36:42;96145.56;;;1.39;100.00
57801;BME280;43627;42.728;23.256;2023-12-28T06:39:10;96145.84;;;1.24;100.00
57801;BME280;43627;42.728;23.256;2023-12-28T06:41:37;96152.31;;;1.19;100.00
57801;BME280;43627;42.728;23.256;2023-12-28T06:44:04;96151.63;;;1.26;100.00
57801;BME280;43627;42.728;23.256;2023-12-28T06:46:30;96154.44;;;1.43;100.00
57801;BME280;43627;42.728;23.256;2023-12-28T06:48:57;96168.19;;;1.35;100.00
57801;BME280;43627;42.728;23.256;2023-12-28T06:51:25;96167.03;;;1.36;100.00
57801;BME280;43627;42.728;23.256;2023-12-28T06:53:53;96163.53;;;1.32;100.00
57801;BME280;43627;42.728;23.256;2023-12-28T06:56:19;96164.66;;;1.24;100.00
57801;BME280;43627;42.728;23.256;2023-12-28T06:58:46;96156.13;;;1.14;100.00
57801;BME280;43627;42.728;23.256;2023-12-28T07:01:20;96172.19;;;1.07;100.00
57801;BME280;43627;42.728;23.256;2023-12-28T07:03:47;96159.09;;;1.02;100.00
57801;BME280;43627;42.728;23.256;2023-12-28T07:06:14;96163.59;;;0.95;100.00
57801;BME280;43627;42.728;23.256;2023-12-28T07:08:41;96165.69;;;0.71;100.00
57801;BME280;43627;42.728;23.256;2023-12-28T07:11:09;96170.28;;;0.67;100.00
57801;BME280;43627;42.728;23.256;2023-12-28T07:13:36;96173.19;;;0.92;100.00
57801;BME280;43627;42.728;23.256;2023-12-28T07:16:02;96166.00;;;1.03;100.00
57801;BME280;43627;42.728;23.256;2023-12-28T07:18:29;96169.81;;;1.02;100.00
57801;BME280;43627;42.728;23.256;2023-12-28T07:20:56;96169.72;;;1.36;100.00
57801;BME280;43627;42.728;23.256;2023-12-28T07:23:23;96163.81;;;1.67;100.00
57801;BME280;43627;42.728;23.256;2023-12-28T07:25:49;96162.81;;;1.93;100.00
57801;BME280;43627;42.728;23.256;2023-12-28T07:28:18;96168.63;;;2.03;100.00
57801;BME280;43627;42.728;23.256;2023-12-28T07:30:45;96171.69;;;2.05;100.00
57801;BME280;43627;42.728;23.256;2023-12-28T07:33:12;96167.56;;;2.21;100.00
57801;BME280;43627;42.728;23.256;2023-12-28T07:35:39;96171.44;;;2.27;100.00
57801;BME280;43627;42.728;23.256;2023-12-28T07:38:06;96174.91;;;2.35;100.00
57801;BME280;43627;42.728;23.256;2023-12-28T07:40:32;96166.53;;;2.62;100.00
57801;BME280;43627;42.728;23.256;2023-12-28T07:42:59;96161.59;;;2.81;100.00
57801;BME280;43627;42.728;23.256;2023-12-28T07:45:27;96172.78;;;2.94;100.00
57801;BME280;43627;42.728;23.256;2023-12-28T07:47:54;96171.25;;;3.04;100.00
57801;BME280;43627;42.728;23.256;2023-12-28T07:50:21;96178.56;;;3.21;100.00
57801;BME280;43627;42.728;23.256;2023-12-28T07:52:47;96180.13;;;3.40;100.00
57801;BME280;43627;42.728;23.256;2023-12-28T07:55:14;96174.34;;;3.66;100.00
57801;BME280;43627;42.728;23.256;2023-12-28T07:57:41;96182.44;;;3.73;100.00
57801;BME280;43627;42.728;23.256;2023-12-28T08:00:08;96180.09;;;3.93;100.00
57801;BME280;43627;42.728;23.256;2023-12-28T08:02:35;96173.56;;;3.84;100.00
57801;BME280;43627;42.728;23.256;2023-12-28T08:05:03;96171.16;;;4.07;100.00
57801;BME280;43627;42.728;23.256;2023-12-28T08:07:29;96166.91;;;4.13;100.00
57801;BME280;43627;42.728;23.256;2023-12-28T08:09:56;96169.19;;;4.25;100.00
57801;BME280;43627;42.728;23.256;2023-12-28T08:12:23;96149.16;;;4.23;100.00
57801;BME280;43627;42.728;23.256;2023-12-28T08:14:50;96166.34;;;4.65;100.00
57801;BME280;43627;42.728;23.256;2023-12-28T08:17:17;96165.56;;;4.68;100.00
57801;BME280;43627;42.728;23.256;2023-12-28T08:19:44;96165.16;;;4.69;100.00
57801;BME280;43627;42.728;23.256;2023-12-28T08:22:10;96164.69;;;4.85;100.00
57801;BME280;43627;42.728;23.256;2023-12-28T08:24:37;96167.28;;;4.99;100.00
57801;BME280;43627;42.728;23.256;2023-12-28T08:27:03;96161.53;;;4.97;100.00
57801;BME280;43627;42.728;23.256;2023-12-28T08:29:30;96163.13;;;4.87;100.00
57801;BME280;43627;42.728;23.256;2023-12-28T08:31:57;96171.97;;;4.92;100.00
57801;BME280;43627;42.728;23.256;2023-12-28T08:34:23;96167.34;;;4.92;100.00
57801;BME280;43627;42.728;23.256;2023-12-28T08:36:50;96162.66;;;5.03;100.00
57801;BME280;43627;42.728;23.256;2023-12-28T08:39:18;96160.59;;;5.18;100.00
57801;BME280;43627;42.728;23.256;2023-12-28T08:41:45;96162.69;;;4.96;100.00
57801;BME280;43627;42.728;23.256;2023-12-28T08:44:11;96158.09;;;4.93;100.00
57801;BME280;43627;42.728;23.256;2023-12-28T08:46:38;96162.56;;;5.14;100.00
57801;BME280;43627;42.728;23.256;2023-12-28T08:49:05;96151.16;;;5.44;100.00
57801;BME280;43627;42.728;23.256;2023-12-28T08:51:32;96149.78;;;5.66;100.00
57801;BME280;43627;42.728;23.256;2023-12-28T08:53:58;96132.56;;;5.91;100.00
57801;BME280;43627;42.728;23.256;2023-12-28T08:56:25;96141.69;;;6.04;100.00
57801;BME280;43627;42.728;23.256;2023-12-28T08:58:51;96138.78;;;5.88;100.00
57801;BME280;43627;42.728;23.256;2023-12-28T09:01:21;96135.69;;;5.86;100.00
57801;BME280;43627;42.728;23.256;2023-12-28T09:03:49;96140.94;;;6.04;100.00
57801;BME280;43627;42.728;23.256;2023-12-28T09:06:16;96137.03;;;6.08;100.00
57801;BME280;43627;42.728;23.256;2023-12-28T09:08:43;96139.53;;;6.26;100.00
57801;BME280;43627;42.728;23.256;2023-12-28T09:11:10;96124.63;;;6.41;100.00
57801;BME280;43627;42.728;23.256;2023-12-28T09:13:38;96119.47;;;6.54;100.00
57801;BME280;43627;42.728;23.256;2023-12-28T09:16:05;96133.22;;;6.67;99.65
57801;BME280;43627;42.728;23.256;2023-12-28T09:18:33;96125.88;;;6.67;98.40
57801;BME280;43627;42.728;23.256;2023-12-28T09:21:00;96121.53;;;6.73;99.56
57801;BME280;43627;42.728;23.256;2023-12-28T09:23:26;96118.91;;;6.66;96.68
57801;BME280;43627;42.728;23.256;2023-12-28T09:25:53;96109.41;;;6.54;98.04
57801;BME280;43627;42.728;23.256;2023-12-28T09:28:20;96105.03;;;6.61;98.31
57801;BME280;43627;42.728;23.256;2023-12-28T09:30:46;96108.16;;;6.59;97.83
57801;BME280;43627;42.728;23.256;2023-12-28T09:33:13;96092.00;;;6.52;99.31
57801;BME280;43627;42.728;23.256;2023-12-28T09:35:42;96088.09;;;6.53;99.99
57801;BME280;43627;42.728;23.256;2023-12-28T09:38:13;96081.97;;;6.49;100.00
57801;BME280;43627;42.728;23.256;2023-12-28T09:40:43;96078.41;;;6.55;100.00
57801;BME280;43627;42.728;23.256;2023-12-28T09:43:15;96070.69;;;6.54;100.00
57801;BME280;43627;42.728;23.256;2023-12-28T09:45:46;96076.91;;;6.51;100.00
57801;BME280;43627;42.728;23.256;2023-12-28T09:48:15;96067.19;;;6.53;100.00
57801;BME280;43627;42.728;23.256;2023-12-28T09:50:43;96067.69;;;6.75;100.00
57801;BME280;43627;42.728;23.256;2023-12-28T09:53:11;96067.78;;;6.68;100.00
57801;BME280;43627;42.728;23.256;2023-12-28T09:55:38;96059.53;;;6.75;100.00
57801;BME280;43627;42.728;23.256;2023-12-28T09:58:05;96054.81;;;6.79;100.00
57801;BME280;43627;42.728;23.256;2023-12-28T10:00:32;96052.28;;;6.69;100.00
57801;BME280;43627;42.728;23.256;2023-12-28T10:02:58;96042.81;;;6.80;100.00
57801;BME280;43627;42.728;23.256;2023-12-28T10:05:25;96038.63;;;6.76;100.00
57801;BME280;43627;42.728;23.256;2023-12-28T10:07:52;96040.09;;;6.80;100.00
57801;BME280;43627;42.728;23.256;2023-12-28T10:10:21;96035.50;;;6.77;100.00
57801;BME280;43627;42.728;23.256;2023-12-28T10:12:48;96029.97;;;7.08;100.00
57801;BME280;43627;42.728;23.256;2023-12-28T10:15:16;96024.47;;;7.35;100.00
57801;BME280;43627;42.728;23.256;2023-12-28T10:17:43;96018.44;;;7.47;100.00
57801;BME280;43627;42.728;23.256;2023-12-28T10:20:10;96014.84;;;7.54;100.00
57801;BME280;43627;42.728;23.256;2023-12-28T10:22:36;96010.03;;;7.61;100.00
57801;BME280;43627;42.728;23.256;2023-12-28T10:25:03;96007.34;;;7.61;100.00
57801;BME280;43627;42.728;23.256;2023-12-28T10:27:30;95982.13;;;7.41;100.00
57801;BME280;43627;42.728;23.256;2023-12-28T10:29:57;95981.41;;;7.37;100.00
57801;BME280;43627;42.728;23.256;2023-12-28T10:32:24;95978.66;;;7.40;100.00
57801;BME280;43627;42.728;23.256;2023-12-28T10:34:52;95977.94;;;7.56;100.00
57801;BME280;43627;42.728;23.256;2023-12-28T10:37:21;95979.22;;;7.71;95.71
57801;BME280;43627;42.728;23.256;2023-12-28T10:39:50;95977.38;;;7.85;94.90
57801;BME280;43627;42.728;23.256;2023-12-28T10:42:27;95958.38;;;7.85;99.65
57801;BME280;43627;42.728;23.256;2023-12-28T10:44:59;95960.75;;;7.83;93.46
57801;BME280;43627;42.728;23.256;2023-12-28T10:47:27;95955.47;;;8.12;96.07
57801;BME280;43627;42.728;23.256;2023-12-28T10:49:55;95951.75;;;8.22;91.51
57801;BME280;43627;42.728;23.256;2023-12-28T10:52:25;95958.19;;;8.12;89.00
57801;BME280;43627;42.728;23.256;2023-12-28T11:00:30;95931.47;;;9.08;82.50
57801;BME280;43627;42.728;23.256;2023-12-28T11:02:58;95936.16;;;9.36;77.28
57801;BME280;43627;42.728;23.256;2023-12-28T11:05:29;95931.31;;;9.44;74.83
57801;BME280;43627;42.728;23.256;2023-12-28T11:07:57;95913.06;;;9.57;73.53
57801;BME280;43627;42.728;23.256;2023-12-28T11:10:26;95923.78;;;9.77;72.89
57801;BME280;43627;42.728;23.256;2023-12-28T11:12:56;95915.38;;;9.71;71.53
57801;BME280;43627;42.728;23.256;2023-12-28T11:15:24;95916.44;;;9.61;71.07
57801;BME280;43627;42.728;23.256;2023-12-28T11:17:52;95913.72;;;9.61;73.49
57801;BME280;43627;42.728;23.256;2023-12-28T11:20:19;95916.06;;;9.88;71.93
57801;BME280;43627;42.728;23.256;2023-12-28T11:22:46;95905.03;;;9.92;69.45
57801;BME280;43627;42.728;23.256;2023-12-28T11:25:17;95903.44;;;10.07;70.82
57801;BME280;43627;42.728;23.256;2023-12-28T11:27:45;95902.66;;;10.19;67.93
57801;BME280;43627;42.728;23.256;2023-12-28T11:30:15;95896.69;;;10.37;67.11
57801;BME280;43627;42.728;23.256;2023-12-28T11:32:42;95887.41;;;10.09;66.23
57801;BME280;43627;42.728;23.256;2023-12-28T11:35:13;95889.06;;;10.07;66.58
57801;BME280;43627;42.728;23.256;2023-12-28T11:37:42;95879.44;;;9.77;68.61
57801;BME280;43627;42.728;23.256;2023-12-28T11:40:12;95868.47;;;9.38;71.25
57801;BME280;43627;42.728;23.256;2023-12-28T11:42:52;95870.41;;;9.80;69.96
57801;BME280;43627;42.728;23.256;2023-12-28T11:45:21;95858.84;;;10.01;68.80
57801;BME280;43627;42.728;23.256;2023-12-28T11:48:01;95862.44;;;10.11;67.85
57801;BME280;43627;42.728;23.256;2023-12-28T11:50:30;95856.00;;;10.17;66.88
57801;BME280;43627;42.728;23.256;2023-12-28T11:52:57;95859.75;;;10.23;66.57
57801;BME280;43627;42.728;23.256;2023-12-28T11:55:24;95859.81;;;10.45;65.42
57801;BME280;43627;42.728;23.256;2023-12-28T11:57:52;95855.00;;;10.49;65.00
57801;BME280;43627;42.728;23.256;2023-12-28T12:00:19;95857.69;;;10.75;64.80
57801;BME280;43627;42.728;23.256;2023-12-28T12:02:47;95841.16;;;11.13;63.75
57801;BME280;43627;42.728;23.256;2023-12-28T12:11:05;95848.56;;;11.78;58.26
57801;BME280;43627;42.728;23.256;2023-12-28T12:13:33;95843.31;;;11.93;57.61
57801;BME280;43627;42.728;23.256;2023-12-28T12:16:00;95845.66;;;12.04;56.56
57801;BME280;43627;42.728;23.256;2023-12-28T12:18:33;95836.63;;;12.25;56.37
57801;BME280;43627;42.728;23.256;2023-12-28T12:21:00;95833.44;;;12.36;55.61
57801;BME280;43627;42.728;23.256;2023-12-28T12:23:27;95823.47;;;12.51;54.86
57801;BME280;43627;42.728;23.256;2023-12-28T12:25:54;95842.13;;;12.43;54.52
57801;BME280;43627;42.728;23.256;2023-12-28T12:28:21;95843.38;;;12.51;54.38
57801;BME280;43627;42.728;23.256;2023-12-28T12:30:52;95848.22;;;12.56;53.71
57801;BME280;43627;42.728;23.256;2023-12-28T12:33:20;95845.75;;;12.40;53.67
57801;BME280;43627;42.728;23.256;2023-12-28T12:35:47;95849.44;;;12.46;53.57
57801;BME280;43627;42.728;23.256;2023-12-28T12:38:13;95832.25;;;12.46;53.62
57801;BME280;43627;42.728;23.256;2023-12-28T12:40:40;95835.44;;;12.44;53.76
57801;BME280;43627;42.728;23.256;2023-12-28T12:43:07;95839.22;;;12.38;54.87
57801;BME280;43627;42.728;23.256;2023-12-28T12:45:36;95845.19;;;12.45;53.98
57801;BME280;43627;42.728;23.256;2023-12-28T12:48:03;95832.00;;;12.71;54.14
57801;BME280;43627;42.728;23.256;2023-12-28T12:50:31;95826.38;;;12.93;56.04
57801;BME280;43627;42.728;23.256;2023-12-28T12:53:01;95823.34;;;13.09;53.67
57801;BME280;43627;42.728;23.256;2023-12-28T12:55:28;95825.16;;;12.85;53.20
57801;BME280;43627;42.728;23.256;2023-12-28T12:57:55;95826.19;;;12.69;53.52
57801;BME280;43627;42.728;23.256;2023-12-28T13:00:22;95826.38;;;12.66;52.67
57801;BME280;43627;42.728;23.256;2023-12-28T13:02:52;95816.34;;;12.63;52.82
57801;BME280;43627;42.728;23.256;2023-12-28T13:05:23;95811.16;;;12.65;52.71